Harrisville, MI

5:16 PM EDT on September 18, 2014 (GMT -0400)
Alpena County Regional | Change Station
CLOSE
Current Station
Airport
Location: Alpena,
Elevation: 689 ft
Nearby Weather Stations

Elev 689 ft 45.07 °N, 83.56 °W | Updated 22 minutes ago

Overcast
Overcast
52 °F
Feels Like 52 °F
N
7
Wind Variable Wind from ESE

Today
High -- | Low -- °F
--% Chance of Precip.
Yesterday
High -- | Low -- °F
Precip. -- in
7:15 AM 7:38 PM
Waning Crescent, 24% visible
Pressure 30.23 in
Visibility 10.0 miles
Clouds Scattered Clouds 3100 ft
Dew Point 39 °F
Humidity 61%
Rainfall 0.00 in
Snow Depth Not available.
UV 2 out of 12
Pollen 3.50 out of 12
Ozone Good
PM2.5 Good
Flu Activity Not available.
METAR KAPN 182054Z AUTO 12006KT 10SM SCT031 11/04 A3022 RMK AO2 SLP236 T01110039 56008

More Conditions Fewer Conditions

Pressure 30.23 in
Visibility 10.0 miles
Clouds Scattered Clouds 3100 ft
Dew Point 39 °F
Humidity 61%
Rainfall 0.00 in
Snow Depth Not available.
UV 2 out of 12
Pollen 3.50 out of 12
Ozone Good
PM2.5 Good
Flu Activity Not available.
METAR KAPN 182054Z AUTO 12006KT 10SM SCT031 11/04 A3022 RMK AO2 SLP236 T01110039 56008

More Conditions Fewer Conditions

Nowcast | as of 5:00 PM EDT on September 18, 2014

At 6 PM...partly cloudy. Temperature 49. Northeast winds 8 mph. At 8 PM...partly cloudy. Temperature 47. Northeast winds 6 mph. At 10 PM...mostly clear. Temperature 44. Light winds. At 12 am...mostly clear. Temperature 43. Light winds.

×

10-Day Weather Forecast

Almanac

Astronomy

Sep. 18, 2014 Rise Set
Actual Time 7:15 AM EDT 7:38 PM EDT
Civil Twilight 6:46 AM EDT 8:07 PM EDT
Nautical Twilight 6:12 AM EDT 8:42 PM EDT
Astronomical Twilight 5:36 AM EDT 9:17 PM EDT
Moon 1:57 AM EDT 4:37 PM EDT
Length of Visible Light 13h 21m
Length of Day
12h 22m
Tomorrow will be 3m 3s shorter.
Waning Crescent, 24% of the Moon is Illuminated
Today
Waning Crescent
Sep 24
New
Oct 1
First Quarter
Oct 8
Full
Oct 15
Last Quarter

Today's Extremes

State Highs State Lows

Community

WunderPhotos

Upload Photos

1,754,448 photos uploaded!

WunderBlogs® & News

Nearby

Air Quality

  Air Quality AQ Index Pollutant
Yesterday Good
OZONE
Yesterday Good
PM2.5
Current Good
OZONE
Current Good
PM2.5
Thursday Good
OZONE
Thursday Good
PM2.5
Friday Good
OZONE
Friday Good
PM2.5
Saturday Good
OZONE
Saturday Good
PM2.5
Sunday Good
OZONE
Sunday Good
PM2.5
Monday Good
OZONE
Monday Good
PM2.5

Snow Depth

Station Depth Elevation
No new snow has been reported.

Earthquake Activity

City Distance Mag. Time & Date
No recent earthquake activity has been reported nearby.
Minimum magnitude displayed is 2.5.

Coastal Water Temperatures

Place Temperature
Alpena, MI 60.1 °F

Nearby Weather Stations